createdAt,value
2023-03-04T00:01:24.468Z,5.03
2023-03-04T00:03:27.770Z,5.02
2023-03-04T00:05:31.330Z,5.02
2023-03-04T00:07:34.648Z,5.03
2023-03-04T00:09:38.076Z,5.03
2023-03-04T00:11:42.942Z,5.04
2023-03-04T00:13:46.264Z,5.04
2023-03-04T00:15:49.859Z,5.01
2023-03-04T00:17:53.201Z,5.02
2023-03-04T00:19:56.511Z,5.03
2023-03-04T00:21:59.828Z,5.04
2023-03-04T00:24:03.232Z,5.03
2023-03-04T00:26:08.031Z,5.01
2023-03-04T00:28:13.017Z,5.02
2023-03-04T00:30:16.750Z,5.02
2023-03-04T00:32:20.091Z,5.04
2023-03-04T00:34:23.529Z,5.04
2023-03-04T00:36:26.914Z,5.05
2023-03-04T00:38:32.429Z,5.07
2023-03-04T00:40:35.722Z,5.06
2023-03-04T00:42:41.149Z,5.06
2023-03-04T00:44:46.023Z,5.06
2023-03-04T00:46:49.328Z,5.05
2023-03-04T00:48:52.571Z,5.05
2023-03-04T00:50:56.152Z,5.06
2023-03-04T00:52:59.397Z,5.06
2023-03-04T00:55:02.697Z,5.06
2023-03-04T00:57:05.945Z,4.99
2023-03-04T00:59:09.248Z,4.91
2023-03-04T01:01:14.038Z,4.90
2023-03-04T01:03:17.396Z,4.90
2023-03-04T01:05:20.881Z,4.94
2023-03-04T01:07:24.208Z,4.96
2023-03-04T01:09:28.001Z,4.98
2023-03-04T01:11:31.309Z,4.98
2023-03-04T01:13:34.956Z,4.95
2023-03-04T01:15:38.233Z,4.99
2023-03-04T01:17:43.481Z,5.01
2023-03-04T01:19:47.117Z,5.03
2023-03-04T01:21:50.862Z,5.03
2023-03-04T01:23:54.077Z,5.03
2023-03-04T01:25:57.452Z,5.01
2023-03-04T01:28:01.666Z,4.98
2023-03-04T01:30:06.948Z,4.99
2023-03-04T01:32:10.326Z,5.01
2023-03-04T01:34:15.022Z,5.05
2023-03-04T01:36:18.306Z,5.05
2023-03-04T01:38:21.531Z,5.06
2023-03-04T01:40:25.078Z,5.07
2023-03-04T01:42:31.887Z,5.07
2023-03-04T01:44:36.189Z,5.07
2023-03-04T01:46:40.881Z,5.05
2023-03-04T01:48:44.719Z,4.99
2023-03-04T01:50:50.194Z,4.95
2023-03-04T01:52:53.572Z,4.97
2023-03-04T01:54:58.872Z,4.98
2023-03-04T01:57:02.082Z,5.01
2023-03-04T01:59:13.223Z,5.04
2023-03-04T02:01:16.950Z,5.06
2023-03-04T02:03:20.962Z,4.96
2023-03-04T02:05:24.896Z,4.89
2023-03-04T02:07:29.565Z,4.88
2023-03-04T02:09:34.337Z,4.90
2023-03-04T02:11:38.453Z,4.95
2023-03-04T02:13:41.680Z,4.98
2023-03-04T02:15:46.835Z,5.02
2023-03-04T02:17:49.801Z,5.02
2023-03-04T02:20:02.346Z,5.03
2023-03-04T02:22:05.913Z,5.05
2023-03-04T02:24:18.997Z,5.04
2023-03-04T02:26:25.208Z,5.06
2023-03-04T02:28:29.988Z,5.07
2023-03-04T02:30:33.256Z,5.06
2023-03-04T02:32:36.657Z,5.04
2023-03-04T02:34:46.161Z,5.03
2023-03-04T02:36:52.514Z,5.03
2023-03-04T02:38:57.212Z,5.03
2023-03-04T02:41:00.614Z,5.03
2023-03-04T02:43:05.236Z,5.03
2023-03-04T02:45:32.489Z,5.01
2023-03-04T02:47:36.834Z,5.00
2023-03-04T02:49:42.558Z,4.99
2023-03-04T02:51:45.941Z,4.95
2023-03-04T02:53:49.155Z,4.95
2023-03-04T02:55:52.690Z,4.95
2023-03-04T02:57:58.790Z,4.98
2023-03-04T03:00:03.696Z,4.97
2023-03-04T03:02:07.353Z,4.99
2023-03-04T03:04:11.016Z,5.01
2023-03-04T03:06:14.432Z,4.99
2023-03-04T03:08:17.898Z,4.99
2023-03-04T03:10:21.459Z,4.98
2023-03-04T03:12:24.790Z,4.99
2023-03-04T03:14:28.181Z,4.99
2023-03-04T03:16:33.172Z,5.01
2023-03-04T03:18:36.731Z,5.02
2023-03-04T03:20:42.176Z,5.02
2023-03-04T03:22:45.778Z,5.02
2023-03-04T03:24:49.062Z,5.03
2023-03-04T03:26:52.336Z,5.03
2023-03-04T03:28:55.554Z,5.03
2023-03-04T03:30:58.917Z,5.01
2023-03-04T03:33:03.826Z,4.97
2023-03-04T03:35:07.764Z,4.93
2023-03-04T03:37:11.209Z,4.91
2023-03-04T03:39:15.689Z,4.92
2023-03-04T03:41:19.038Z,4.94
2023-03-04T03:43:22.263Z,4.96
2023-03-04T03:45:25.544Z,4.99
2023-03-04T03:47:28.903Z,4.99
2023-03-04T03:49:33.649Z,4.99
2023-03-04T03:51:36.937Z,4.97
2023-03-04T03:53:40.197Z,4.96
2023-03-04T03:55:43.492Z,4.97
2023-03-04T03:57:46.851Z,4.96
2023-03-04T03:59:50.172Z,4.96
2023-03-04T04:01:53.523Z,4.96
2023-03-04T04:03:56.919Z,4.97
2023-03-04T04:06:01.715Z,4.94
2023-03-04T04:08:05.204Z,4.91
2023-03-04T04:10:09.870Z,4.89
2023-03-04T04:12:15.070Z,4.88
2023-03-04T04:14:18.041Z,4.87
2023-03-04T04:16:21.356Z,4.89
2023-03-04T04:18:25.982Z,4.90
2023-03-04T04:20:29.543Z,4.89
2023-03-04T04:22:34.174Z,4.89
2023-03-04T04:24:37.470Z,4.88
2023-03-04T04:26:40.773Z,4.88
2023-03-04T04:28:44.056Z,4.89
2023-03-04T04:30:47.282Z,4.89
2023-03-04T04:32:50.743Z,4.91
2023-03-04T04:34:53.961Z,4.90
2023-03-04T04:36:57.715Z,4.90
2023-03-04T04:39:02.399Z,4.91
2023-03-04T04:41:06.347Z,4.89
2023-03-04T04:43:09.778Z,4.87
2023-03-04T04:45:13.254Z,4.86
2023-03-04T04:47:16.485Z,4.87
2023-03-04T04:49:19.933Z,4.86
2023-03-04T04:51:23.205Z,4.85
2023-03-04T04:53:26.493Z,4.86
2023-03-04T04:55:31.115Z,4.85
2023-03-04T04:57:35.153Z,4.85
2023-03-04T04:59:38.327Z,4.86
2023-03-04T05:01:42.156Z,4.86
2023-03-04T05:03:45.566Z,4.86
2023-03-04T05:05:48.968Z,4.84
2023-03-04T05:07:52.436Z,4.83
2023-03-04T05:09:55.853Z,4.78
2023-03-04T05:12:00.972Z,4.75
2023-03-04T05:14:04.802Z,4.76
2023-03-04T05:16:09.572Z,4.76
2023-03-04T05:18:12.286Z,4.78
2023-03-04T05:20:15.762Z,4.77
2023-03-04T05:22:19.511Z,4.78
2023-03-04T05:24:23.368Z,4.79
2023-03-04T05:26:26.945Z,4.80
2023-03-04T05:28:31.923Z,4.79
2023-03-04T05:30:35.787Z,4.78
2023-03-04T05:32:39.419Z,4.77
2023-03-04T05:34:43.191Z,4.77
2023-03-04T05:36:46.940Z,4.75
2023-03-04T05:38:50.720Z,4.74
2023-03-04T05:40:59.341Z,4.73
2023-03-04T05:43:03.452Z,4.72
2023-03-04T05:45:09.908Z,4.72
2023-03-04T05:47:13.586Z,4.72
2023-03-04T05:49:17.227Z,4.72
2023-03-04T05:51:21.244Z,4.71
2023-03-04T05:53:25.523Z,4.72
2023-03-04T05:55:30.170Z,4.71
2023-03-04T05:57:33.828Z,4.71
2023-03-04T05:59:37.367Z,4.71
2023-03-04T06:01:42.365Z,4.71
2023-03-04T06:03:48.665Z,4.71
2023-03-04T06:05:52.314Z,4.72
2023-03-04T06:07:55.919Z,4.71
2023-03-04T06:09:59.614Z,4.66
2023-03-04T06:12:03.436Z,4.65
2023-03-04T06:14:07.197Z,4.65
2023-03-04T06:16:11.442Z,4.65
2023-03-04T06:18:16.397Z,4.66
2023-03-04T06:20:20.218Z,4.66
2023-03-04T06:22:23.963Z,4.66
2023-03-04T06:24:28.494Z,4.65
2023-03-04T06:26:32.513Z,4.64
2023-03-04T06:28:36.047Z,4.64
2023-03-04T06:30:39.458Z,4.66
2023-03-04T06:32:44.468Z,4.65
2023-03-04T06:34:49.472Z,4.65
2023-03-04T06:36:53.353Z,4.65
2023-03-04T06:38:56.993Z,4.66
2023-03-04T06:41:08.338Z,4.66
2023-03-04T06:43:11.851Z,4.67
2023-03-04T06:45:15.506Z,4.66
2023-03-04T06:47:19.652Z,4.67
2023-03-04T06:49:23.072Z,4.67
2023-03-04T06:51:28.273Z,4.67
2023-03-04T06:53:31.202Z,4.64
2023-03-04T06:55:34.497Z,4.64
2023-03-04T06:57:37.912Z,4.64
2023-03-04T06:59:41.281Z,4.62
2023-03-04T07:01:44.595Z,4.64
2023-03-04T07:03:48.962Z,4.63
2023-03-04T07:05:52.254Z,4.64
2023-03-04T07:07:57.057Z,4.63
2023-03-04T07:10:00.276Z,4.65
2023-03-04T07:12:03.579Z,4.66
2023-03-04T07:14:07.027Z,4.67
2023-03-04T07:16:12.789Z,4.69
2023-03-04T07:18:16.132Z,4.71
2023-03-04T07:20:19.530Z,4.69
2023-03-04T07:22:22.770Z,4.68
2023-03-04T07:24:27.435Z,4.69
2023-03-04T07:26:30.825Z,4.68
2023-03-04T07:28:34.696Z,4.67
2023-03-04T07:30:38.058Z,4.67
2023-03-04T07:32:41.297Z,4.69
2023-03-04T07:34:44.575Z,4.70
2023-03-04T07:36:47.889Z,4.69
2023-03-04T07:38:52.038Z,4.69
2023-03-04T07:41:00.375Z,4.69
2023-03-04T07:43:03.653Z,4.69
2023-03-04T07:45:08.819Z,4.69
2023-03-04T07:47:12.221Z,4.69
2023-03-04T07:49:15.930Z,4.69
2023-03-04T07:51:21.284Z,4.70
2023-03-04T07:53:24.606Z,4.70
2023-03-04T07:55:28.051Z,4.69
2023-03-04T07:57:32.745Z,4.70
2023-03-04T07:59:35.967Z,4.69
2023-03-04T08:01:39.650Z,4.68
2023-03-04T08:03:43.605Z,4.68
2023-03-04T08:05:46.868Z,4.69
2023-03-04T08:07:50.160Z,4.72
2023-03-04T08:09:53.571Z,4.74
2023-03-04T08:11:56.888Z,4.75
2023-03-04T08:14:01.621Z,4.77
2023-03-04T08:16:06.542Z,4.76
2023-03-04T08:18:10.555Z,4.78
2023-03-04T08:20:14.781Z,4.79
2023-03-04T08:22:18.375Z,4.80
2023-03-04T08:24:22.294Z,4.80
2023-03-04T08:26:28.535Z,4.81
2023-03-04T08:28:32.352Z,4.84
2023-03-04T08:30:38.132Z,4.83
2023-03-04T08:32:42.056Z,4.84
2023-03-04T08:34:46.753Z,4.84
2023-03-04T08:36:50.564Z,4.82
2023-03-04T08:38:54.479Z,4.81
2023-03-04T08:40:58.666Z,4.81
2023-03-04T08:43:02.548Z,4.84
2023-03-04T08:45:07.476Z,4.83
2023-03-04T08:47:12.911Z,4.85
2023-03-04T08:49:16.883Z,4.86
2023-03-04T08:51:20.729Z,4.86
2023-03-04T08:53:25.165Z,4.88
2023-03-04T08:55:29.363Z,4.90
2023-03-04T08:57:33.507Z,4.92
2023-03-04T08:59:38.541Z,4.92
2023-03-04T09:01:43.866Z,4.94
2023-03-04T09:03:49.360Z,4.93
2023-03-04T09:05:53.641Z,4.93
2023-03-04T09:07:57.702Z,4.95
2023-03-04T09:10:01.908Z,4.97
2023-03-04T09:12:06.555Z,4.99
2023-03-04T09:14:11.055Z,5.02
2023-03-04T09:16:17.056Z,5.01
2023-03-04T09:18:22.648Z,4.94
2023-03-04T09:20:28.147Z,4.90
2023-03-04T09:22:32.366Z,4.91
2023-03-04T09:24:35.964Z,4.96
2023-03-04T09:26:39.840Z,4.98
2023-03-04T09:28:43.858Z,4.97
2023-03-04T09:30:49.793Z,4.96
2023-03-04T09:32:53.662Z,4.97
2023-03-04T09:34:57.407Z,4.96
2023-03-04T09:37:02.256Z,4.98
2023-03-04T09:39:06.221Z,4.98
2023-03-04T09:41:11.798Z,4.98
2023-03-04T09:43:22.217Z,4.98
2023-03-04T09:45:31.056Z,5.02
2023-03-04T09:47:36.515Z,5.01
2023-03-04T09:49:43.852Z,5.03
2023-03-04T09:51:56.902Z,5.05
2023-03-04T09:54:08.662Z,5.12
2023-03-04T09:56:13.592Z,5.14
2023-03-04T09:58:29.714Z,5.15
2023-03-04T10:00:41.434Z,5.15
2023-03-04T10:02:54.885Z,5.16
2023-03-04T10:05:03.825Z,5.16
2023-03-04T10:07:15.834Z,5.17
2023-03-04T10:09:25.304Z,5.18
2023-03-04T10:11:34.634Z,5.17
2023-03-04T10:13:43.147Z,5.16
2023-03-04T10:15:51.454Z,5.15
2023-03-04T10:18:02.260Z,5.13
2023-03-04T10:20:12.652Z,5.11
2023-03-04T10:22:23.721Z,5.07
2023-03-04T10:24:31.405Z,5.06
2023-03-04T10:26:35.793Z,5.03
2023-03-04T10:28:40.047Z,5.04
2023-03-04T10:30:52.353Z,5.07
2023-03-04T10:32:56.122Z,5.14
2023-03-04T10:34:59.797Z,5.17
2023-03-04T10:37:07.708Z,5.18
2023-03-04T10:39:13.803Z,5.20
2023-03-04T10:41:22.998Z,5.20
2023-03-04T10:43:27.288Z,5.20
2023-03-04T10:45:36.921Z,5.18
2023-03-04T10:47:40.851Z,5.11
2023-03-04T10:49:53.443Z,5.10
2023-03-04T10:52:04.144Z,5.12
2023-03-04T10:54:11.319Z,5.15
2023-03-04T10:56:37.604Z,5.12
2023-03-04T10:58:41.311Z,5.17
2023-03-04T11:00:45.944Z,5.23
2023-03-04T11:02:51.004Z,5.27
2023-03-04T11:04:59.010Z,5.29
2023-03-04T11:07:02.658Z,5.27
2023-03-04T11:09:06.485Z,5.24
2023-03-04T11:11:25.180Z,5.22
2023-03-04T11:13:31.803Z,5.22
2023-03-04T11:15:52.293Z,5.25
2023-03-04T11:17:58.639Z,5.27
2023-03-04T11:20:13.458Z,5.28
2023-03-04T11:22:21.973Z,5.27
2023-03-04T11:24:31.219Z,5.28
2023-03-04T11:26:40.241Z,5.31
2023-03-04T11:28:53.063Z,5.33
2023-03-04T11:30:59.262Z,5.33
2023-03-04T11:33:22.306Z,5.30
2023-03-04T11:35:30.873Z,5.31
2023-03-04T11:37:41.111Z,5.27
2023-03-04T11:39:51.086Z,5.29
2023-03-04T11:42:00.540Z,5.34
2023-03-04T11:44:09.032Z,5.38
2023-03-04T11:46:44.001Z,5.42
2023-03-04T11:48:56.012Z,5.43
2023-03-04T11:51:05.871Z,5.42
2023-03-04T11:53:28.898Z,5.36
2023-03-04T11:55:42.700Z,5.34
2023-03-04T11:57:58.270Z,5.33
2023-03-04T12:00:28.071Z,5.34
2023-03-04T12:02:38.480Z,5.34
2023-03-04T12:05:14.243Z,5.33
2023-03-04T12:07:37.938Z,5.35
2023-03-04T12:09:55.936Z,5.32
2023-03-04T12:12:16.177Z,5.32
2023-03-04T12:14:29.661Z,5.33
2023-03-04T12:17:14.409Z,5.38
2023-03-04T12:19:33.040Z,5.43
2023-03-04T12:21:59.696Z,5.47
2023-03-04T12:24:25.584Z,5.51
2023-03-04T12:26:39.513Z,5.53
2023-03-04T12:28:53.555Z,5.57
2023-03-04T12:31:22.721Z,5.60
2023-03-04T12:33:40.913Z,5.62
2023-03-04T12:35:54.459Z,5.66
2023-03-04T12:38:21.218Z,5.70
2023-03-04T12:40:46.617Z,5.67
2023-03-04T12:43:06.502Z,5.67
2023-03-04T12:45:20.596Z,5.66
2023-03-04T12:47:34.975Z,5.67
2023-03-04T12:49:53.688Z,5.70
2023-03-04T12:52:08.115Z,5.70
2023-03-04T12:54:26.297Z,5.65
2023-03-04T12:56:39.250Z,5.53
2023-03-04T12:58:43.230Z,5.45
2023-03-04T13:00:54.727Z,5.48
2023-03-04T13:03:12.614Z,5.51
2023-03-04T13:05:38.600Z,5.51
2023-03-04T13:07:55.010Z,5.57
2023-03-04T13:10:03.361Z,5.61
2023-03-04T13:12:17.155Z,5.60
2023-03-04T13:14:32.841Z,5.61
2023-03-04T13:16:40.925Z,5.64
2023-03-04T13:18:45.374Z,5.68
2023-03-04T13:21:06.695Z,5.72
2023-03-04T13:23:29.454Z,5.72
2023-03-04T13:25:42.531Z,5.78
2023-03-04T13:27:48.850Z,5.81
2023-03-04T13:29:52.424Z,5.85
2023-03-04T13:32:00.141Z,5.85
2023-03-04T13:34:06.455Z,5.85
2023-03-04T13:36:32.554Z,5.83
2023-03-04T13:38:39.856Z,5.87
2023-03-04T13:40:43.567Z,5.91
2023-03-04T13:42:48.010Z,5.91
2023-03-04T13:45:05.176Z,5.90
2023-03-04T13:47:11.385Z,5.75
2023-03-04T13:49:23.791Z,5.56
2023-03-04T13:51:30.798Z,5.52
2023-03-04T13:53:50.333Z,5.50
2023-03-04T13:56:08.329Z,5.54
2023-03-04T13:58:22.989Z,5.59
2023-03-04T14:00:27.589Z,5.63
2023-03-04T14:02:36.578Z,5.70
2023-03-04T14:04:42.858Z,5.74
2023-03-04T14:06:48.917Z,5.78
2023-03-04T14:08:55.596Z,5.79
2023-03-04T14:11:02.072Z,5.82
2023-03-04T14:13:05.810Z,5.83
2023-03-04T14:15:23.771Z,5.84
2023-03-04T14:17:31.294Z,5.85
2023-03-04T14:19:40.645Z,5.87
2023-03-04T14:21:47.417Z,5.85
2023-03-04T14:24:03.702Z,5.83
2023-03-04T14:26:10.348Z,5.83
2023-03-04T14:28:17.193Z,5.84
2023-03-04T14:30:40.837Z,5.80
2023-03-04T14:32:47.488Z,5.81
2023-03-04T14:34:54.784Z,5.80
2023-03-04T14:36:58.971Z,5.81
2023-03-04T14:39:07.376Z,5.82
2023-03-04T14:41:17.358Z,5.82
2023-03-04T14:43:23.291Z,5.83
2023-03-04T14:45:29.486Z,5.84
2023-03-04T14:47:39.227Z,5.83
2023-03-04T14:49:43.580Z,5.81
2023-03-04T14:51:51.029Z,5.81
2023-03-04T14:53:57.309Z,5.79
2023-03-04T14:56:04.775Z,5.79
2023-03-04T14:58:10.871Z,5.80
2023-03-04T15:00:26.773Z,5.81
2023-03-04T15:02:40.717Z,5.79
2023-03-04T15:04:45.621Z,5.76
2023-03-04T15:06:53.370Z,5.73
2023-03-04T15:09:01.801Z,5.72
2023-03-04T15:11:10.766Z,5.71
2023-03-04T15:13:15.059Z,5.74
2023-03-04T15:15:50.343Z,5.72
2023-03-04T15:18:00.042Z,5.70
2023-03-04T15:20:21.660Z,5.65
2023-03-04T15:22:25.444Z,5.64
2023-03-04T15:24:29.249Z,5.63
2023-03-04T15:26:39.537Z,5.61
2023-03-04T15:28:44.585Z,5.63
2023-03-04T15:30:49.025Z,5.65
2023-03-04T15:32:53.727Z,5.64
2023-03-04T15:34:58.795Z,5.65
2023-03-04T15:37:02.817Z,5.71
2023-03-04T15:39:06.691Z,5.75
2023-03-04T15:41:12.781Z,5.75
2023-03-04T15:43:20.379Z,5.72
2023-03-04T15:45:26.426Z,5.69
2023-03-04T15:47:30.779Z,5.63
2023-03-04T15:49:34.786Z,5.62
2023-03-04T15:51:38.808Z,5.62
2023-03-04T15:53:46.447Z,5.63
2023-03-04T15:55:50.286Z,5.62
2023-03-04T15:57:57.042Z,5.58
2023-03-04T16:00:02.922Z,5.56
2023-03-04T16:02:20.234Z,5.54
2023-03-04T16:04:24.486Z,5.54
2023-03-04T16:06:32.442Z,5.52
2023-03-04T16:08:37.092Z,5.50
2023-03-04T16:10:40.983Z,5.50
2023-03-04T16:12:45.557Z,5.48
2023-03-04T16:14:50.399Z,5.47
2023-03-04T16:16:55.856Z,5.42
2023-03-04T16:19:00.182Z,5.40
2023-03-04T16:21:06.247Z,5.38
2023-03-04T16:23:15.053Z,5.37
2023-03-04T16:25:21.188Z,5.35
2023-03-04T16:27:26.824Z,5.33
2023-03-04T16:29:31.323Z,5.31
2023-03-04T16:31:36.347Z,5.31
2023-03-04T16:33:42.518Z,5.29
2023-03-04T16:35:47.702Z,5.28
2023-03-04T16:37:53.543Z,5.27
2023-03-04T16:39:58.181Z,5.27
2023-03-04T16:42:02.814Z,5.29
2023-03-04T16:44:09.404Z,5.26
2023-03-04T16:46:15.708Z,5.22
2023-03-04T16:48:21.060Z,5.20
2023-03-04T16:50:28.623Z,5.18
2023-03-04T16:52:35.908Z,5.16
2023-03-04T16:54:41.007Z,5.13
2023-03-04T16:56:46.145Z,5.12
2023-03-04T16:58:50.313Z,5.13
2023-03-04T17:00:54.508Z,5.11
2023-03-04T17:03:00.453Z,5.09
2023-03-04T17:05:04.630Z,5.07
2023-03-04T17:07:10.960Z,5.05
2023-03-04T17:09:16.910Z,5.01
2023-03-04T17:11:23.581Z,4.99
2023-03-04T17:13:28.129Z,4.98
2023-03-04T17:15:32.698Z,4.98
2023-03-04T17:17:37.569Z,4.98
2023-03-04T17:19:43.286Z,4.95
2023-03-04T17:21:47.340Z,4.95
2023-03-04T17:23:54.201Z,4.95
2023-03-04T17:25:59.342Z,4.94
2023-03-04T17:28:03.503Z,4.92
2023-03-04T17:30:11.698Z,4.88
2023-03-04T17:32:16.508Z,4.85
2023-03-04T17:34:22.030Z,4.85
2023-03-04T17:36:26.185Z,4.85
2023-03-04T17:38:30.805Z,4.86
2023-03-04T17:40:37.406Z,4.86
2023-03-04T17:42:42.089Z,4.86
2023-03-04T17:44:46.918Z,4.83
2023-03-04T17:46:51.647Z,4.82
2023-03-04T17:48:57.002Z,4.80
2023-03-04T17:51:01.548Z,4.77
2023-03-04T17:53:05.963Z,4.78
2023-03-04T17:55:11.479Z,4.73
2023-03-04T17:57:17.132Z,4.70
2023-03-04T17:59:21.996Z,4.69
2023-03-04T18:01:27.002Z,4.68
2023-03-04T18:03:32.073Z,4.68
2023-03-04T18:05:35.837Z,4.66
2023-03-04T18:07:40.325Z,4.65
2023-03-04T18:09:44.674Z,4.65
2023-03-04T18:11:49.053Z,4.64
2023-03-04T18:13:56.618Z,4.65
2023-03-04T18:16:01.310Z,4.64
2023-03-04T18:18:05.844Z,4.64
2023-03-04T18:20:11.256Z,4.63
2023-03-04T18:22:15.605Z,4.63
2023-03-04T18:24:20.039Z,4.63
2023-03-04T18:26:25.523Z,4.63
2023-03-04T18:28:30.550Z,4.58
2023-03-04T18:30:36.569Z,4.56
2023-03-04T18:32:51.403Z,4.55
2023-03-04T18:34:56.347Z,4.56
2023-03-04T18:37:00.636Z,4.57
2023-03-04T18:39:07.718Z,4.55
2023-03-04T18:41:14.027Z,4.56
2023-03-04T18:43:18.900Z,4.57
2023-03-04T18:45:23.559Z,4.56
2023-03-04T18:47:30.026Z,4.58
2023-03-04T18:49:34.314Z,4.57
2023-03-04T18:51:38.895Z,4.56
2023-03-04T18:53:42.746Z,4.56
2023-03-04T18:55:48.186Z,4.57
2023-03-04T18:57:56.515Z,4.56
2023-03-04T19:00:03.206Z,4.57
2023-03-04T19:02:13.523Z,4.56
2023-03-04T19:04:22.704Z,4.56
2023-03-04T19:06:26.783Z,4.56
2023-03-04T19:08:31.792Z,4.56
2023-03-04T19:10:36.184Z,4.57
2023-03-04T19:12:40.457Z,4.55
2023-03-04T19:14:45.239Z,4.57
2023-03-04T19:16:49.694Z,4.58
2023-03-04T19:18:54.281Z,4.58
2023-03-04T19:21:05.143Z,4.59
2023-03-04T19:23:10.922Z,4.60
2023-03-04T19:25:15.343Z,4.57
2023-03-04T19:27:20.080Z,4.57
2023-03-04T19:29:24.680Z,4.58
2023-03-04T19:31:28.969Z,4.59
2023-03-04T19:33:32.811Z,4.58
2023-03-04T19:35:43.212Z,4.60
2023-03-04T19:37:49.257Z,4.62
2023-03-04T19:39:56.150Z,4.61
2023-03-04T19:42:01.539Z,4.59
2023-03-04T19:44:06.462Z,4.60
2023-03-04T19:46:12.501Z,4.58
2023-03-04T19:48:18.030Z,4.60
2023-03-04T19:50:22.294Z,4.59
2023-03-04T19:52:26.458Z,4.60
2023-03-04T19:54:32.408Z,4.60
2023-03-04T19:56:36.881Z,4.60
2023-03-04T19:58:41.363Z,4.60
2023-03-04T20:00:46.018Z,4.60
2023-03-04T20:02:50.615Z,4.60
2023-03-04T20:04:55.171Z,4.61
2023-03-04T20:06:59.723Z,4.62
2023-03-04T20:09:05.638Z,4.62
2023-03-04T20:11:16.371Z,4.63
2023-03-04T20:13:21.824Z,4.65
2023-03-04T20:15:26.123Z,4.64
2023-03-04T20:17:30.713Z,4.66
2023-03-04T20:19:35.999Z,4.63
2023-03-04T20:21:40.184Z,4.63
2023-03-04T20:23:43.870Z,4.63
2023-03-04T20:25:47.989Z,4.63
2023-03-04T20:27:55.424Z,4.61
2023-03-04T20:30:00.851Z,4.62
2023-03-04T20:32:06.881Z,4.61
2023-03-04T20:34:10.772Z,4.61
2023-03-04T20:36:15.017Z,4.60
2023-03-04T20:38:19.127Z,4.59
2023-03-04T20:40:23.323Z,4.57
2023-03-04T20:42:27.803Z,4.58
2023-03-04T20:44:33.393Z,4.57
2023-03-04T20:46:41.444Z,4.56
2023-03-04T20:48:45.922Z,4.54
2023-03-04T20:50:49.982Z,4.54
2023-03-04T20:52:54.743Z,4.54
2023-03-04T20:54:58.833Z,4.52
2023-03-04T20:57:02.886Z,4.50
2023-03-04T20:59:09.885Z,4.49
2023-03-04T21:01:15.764Z,4.49
2023-03-04T21:03:19.931Z,4.49
2023-03-04T21:05:24.307Z,4.49
2023-03-04T21:07:28.405Z,4.51
2023-03-04T21:09:32.866Z,4.50
2023-03-04T21:11:41.083Z,4.49
2023-03-04T21:13:46.211Z,4.49
2023-03-04T21:15:51.015Z,4.50
2023-03-04T21:17:56.489Z,4.50
2023-03-04T21:20:00.910Z,4.50
2023-03-04T21:22:06.114Z,4.49
2023-03-04T21:24:14.937Z,4.50
2023-03-04T21:26:20.045Z,4.49
2023-03-04T21:28:23.805Z,4.48
2023-03-04T21:30:29.321Z,4.46
2023-03-04T21:32:33.620Z,4.46
2023-03-04T21:34:43.523Z,4.47
2023-03-04T21:36:47.481Z,4.45
2023-03-04T21:38:51.883Z,4.43
2023-03-04T21:40:55.905Z,4.44
2023-03-04T21:42:59.735Z,4.44
2023-03-04T21:45:04.077Z,4.44
2023-03-04T21:47:08.366Z,4.43
2023-03-04T21:49:14.863Z,4.43
2023-03-04T21:51:20.774Z,4.44
2023-03-04T21:53:25.204Z,4.44
2023-03-04T21:55:29.309Z,4.44
2023-03-04T21:57:33.985Z,4.43
2023-03-04T21:59:39.129Z,4.43
2023-03-04T22:01:43.212Z,4.42
2023-03-04T22:03:49.222Z,4.42
2023-03-04T22:05:52.774Z,4.40
2023-03-04T22:07:58.632Z,4.38
2023-03-04T22:10:03.410Z,4.37
2023-03-04T22:12:08.588Z,4.34
2023-03-04T22:14:13.525Z,4.33
2023-03-04T22:16:17.735Z,4.31
2023-03-04T22:18:22.439Z,4.32
2023-03-04T22:20:26.852Z,4.30
2023-03-04T22:22:31.908Z,4.30
2023-03-04T22:24:37.130Z,4.27
2023-03-04T22:26:41.184Z,4.28
2023-03-04T22:28:46.042Z,4.26
2023-03-04T22:30:50.053Z,4.24
2023-03-04T22:32:54.496Z,4.22
2023-03-04T22:34:58.760Z,4.20
2023-03-04T22:37:02.425Z,4.20
2023-03-04T22:39:09.069Z,4.20
2023-03-04T22:41:19.215Z,4.20
2023-03-04T22:43:23.168Z,4.19
2023-03-04T22:45:28.642Z,4.19
2023-03-04T22:47:32.419Z,4.19
2023-03-04T22:49:36.611Z,4.20
2023-03-04T22:51:42.910Z,4.20
2023-03-04T22:53:47.032Z,4.20
2023-03-04T22:55:50.917Z,4.23
2023-03-04T22:57:56.424Z,4.23
2023-03-04T23:00:00.640Z,4.29
2023-03-04T23:02:04.922Z,4.33
2023-03-04T23:04:09.402Z,4.35
2023-03-04T23:06:16.320Z,4.34
2023-03-04T23:08:20.274Z,4.35
2023-03-04T23:10:26.748Z,4.31
2023-03-04T23:12:31.602Z,4.30
2023-03-04T23:14:37.505Z,4.29
2023-03-04T23:16:44.746Z,4.29
2023-03-04T23:18:50.228Z,4.29
2023-03-04T23:20:54.721Z,4.27
2023-03-04T23:22:58.700Z,4.26
2023-03-04T23:25:02.603Z,4.23
2023-03-04T23:27:06.623Z,4.22
2023-03-04T23:29:13.913Z,4.22
2023-03-04T23:31:19.951Z,4.21
2023-03-04T23:33:24.200Z,4.20
2023-03-04T23:35:28.010Z,4.18
2023-03-04T23:37:31.826Z,4.16
2023-03-04T23:39:36.039Z,4.16
2023-03-04T23:41:40.616Z,4.15
2023-03-04T23:43:45.389Z,4.12
2023-03-04T23:45:49.889Z,4.11
2023-03-04T23:47:55.486Z,4.09
2023-03-04T23:50:00.474Z,4.05
2023-03-04T23:52:05.100Z,4.02
2023-03-04T23:54:09.514Z,4.01
2023-03-04T23:56:15.302Z,4.00
2023-03-04T23:58:19.256Z,3.99
